sensor_id;sensor_type;location;lat;lon;timestamp;P1;durP1;ratioP1;P2;durP2;ratioP2
31734;SDS011;18313;48.518;9.124;2024-03-17T00:00:37;11.55;;;9.77;;
31734;SDS011;18313;48.518;9.124;2024-03-17T00:03:06;14.70;;;8.77;;
31734;SDS011;18313;48.518;9.124;2024-03-17T00:05:35;13.20;;;8.85;;
31734;SDS011;18313;48.518;9.124;2024-03-17T00:08:02;14.68;;;10.60;;
31734;SDS011;18313;48.518;9.124;2024-03-17T00:10:30;15.00;;;10.18;;
31734;SDS011;18313;48.518;9.124;2024-03-17T00:12:57;12.93;;;8.88;;
31734;SDS011;18313;48.518;9.124;2024-03-17T00:15:24;14.00;;;9.75;;
31734;SDS011;18313;48.518;9.124;2024-03-17T00:17:50;12.68;;;8.88;;
31734;SDS011;18313;48.518;9.124;2024-03-17T00:20:16;10.77;;;8.93;;
31734;SDS011;18313;48.518;9.124;2024-03-17T00:22:49;13.60;;;10.18;;
31734;SDS011;18313;48.518;9.124;2024-03-17T00:25:16;12.65;;;8.95;;
31734;SDS011;18313;48.518;9.124;2024-03-17T00:27:43;12.93;;;10.20;;
31734;SDS011;18313;48.518;9.124;2024-03-17T00:30:11;11.80;;;8.38;;
31734;SDS011;18313;48.518;9.124;2024-03-17T00:32:41;11.43;;;8.13;;
31734;SDS011;18313;48.518;9.124;2024-03-17T00:35:08;12.50;;;8.95;;
31734;SDS011;18313;48.518;9.124;2024-03-17T00:37:36;13.90;;;9.50;;
31734;SDS011;18313;48.518;9.124;2024-03-17T00:40:03;14.98;;;9.48;;
31734;SDS011;18313;48.518;9.124;2024-03-17T00:42:31;13.60;;;10.40;;
31734;SDS011;18313;48.518;9.124;2024-03-17T00:44:58;13.18;;;9.85;;
31734;SDS011;18313;48.518;9.124;2024-03-17T00:47:28;16.38;;;11.82;;
31734;SDS011;18313;48.518;9.124;2024-03-17T00:49:57;14.65;;;10.45;;
31734;SDS011;18313;48.518;9.124;2024-03-17T00:52:24;16.45;;;10.30;;
31734;SDS011;18313;48.518;9.124;2024-03-17T00:54:50;13.10;;;9.85;;
31734;SDS011;18313;48.518;9.124;2024-03-17T00:57:18;17.50;;;10.93;;
31734;SDS011;18313;48.518;9.124;2024-03-17T00:59:44;14.55;;;10.23;;
31734;SDS011;18313;48.518;9.124;2024-03-17T01:02:12;13.98;;;10.25;;
31734;SDS011;18313;48.518;9.124;2024-03-17T01:04:42;14.00;;;9.75;;
31734;SDS011;18313;48.518;9.124;2024-03-17T01:07:11;14.45;;;9.98;;
31734;SDS011;18313;48.518;9.124;2024-03-17T01:09:39;14.45;;;10.55;;
31734;SDS011;18313;48.518;9.124;2024-03-17T01:12:05;12.20;;;9.25;;
31734;SDS011;18313;48.518;9.124;2024-03-17T01:14:32;13.90;;;9.10;;
31734;SDS011;18313;48.518;9.124;2024-03-17T01:17:04;11.68;;;7.30;;
31734;SDS011;18313;48.518;9.124;2024-03-17T01:19:30;9.95;;;6.68;;
31734;SDS011;18313;48.518;9.124;2024-03-17T01:21:59;9.18;;;6.07;;
31734;SDS011;18313;48.518;9.124;2024-03-17T01:24:26;8.65;;;5.90;;
31734;SDS011;18313;48.518;9.124;2024-03-17T01:26:59;8.95;;;6.20;;
31734;SDS011;18313;48.518;9.124;2024-03-17T01:29:26;7.03;;;5.50;;
31734;SDS011;18313;48.518;9.124;2024-03-17T01:31:54;8.25;;;5.85;;
31734;SDS011;18313;48.518;9.124;2024-03-17T01:34:21;9.88;;;5.70;;
31734;SDS011;18313;48.518;9.124;2024-03-17T01:36:48;7.85;;;4.72;;
31734;SDS011;18313;48.518;9.124;2024-03-17T01:39:14;6.53;;;4.95;;
31734;SDS011;18313;48.518;9.124;2024-03-17T01:41:42;7.40;;;4.47;;
31734;SDS011;18313;48.518;9.124;2024-03-17T01:44:20;6.15;;;4.35;;
31734;SDS011;18313;48.518;9.124;2024-03-17T01:46:48;6.15;;;4.15;;
31734;SDS011;18313;48.518;9.124;2024-03-17T01:49:15;6.30;;;4.07;;
31734;SDS011;18313;48.518;9.124;2024-03-17T01:51:42;7.00;;;3.88;;
31734;SDS011;18313;48.518;9.124;2024-03-17T01:54:13;4.95;;;3.80;;
31734;SDS011;18313;48.518;9.124;2024-03-17T01:56:40;4.53;;;3.58;;
31734;SDS011;18313;48.518;9.124;2024-03-17T01:59:08;6.47;;;3.70;;
31734;SDS011;18313;48.518;9.124;2024-03-17T02:01:35;6.75;;;4.13;;
31734;SDS011;18313;48.518;9.124;2024-03-17T02:04:02;7.15;;;6.25;;
31734;SDS011;18313;48.518;9.124;2024-03-17T02:06:30;7.38;;;4.50;;
31734;SDS011;18313;48.518;9.124;2024-03-17T02:08:56;5.88;;;4.10;;
31734;SDS011;18313;48.518;9.124;2024-03-17T02:13:56;7.38;;;3.88;;
31734;SDS011;18313;48.518;9.124;2024-03-17T02:16:22;8.43;;;4.10;;
31734;SDS011;18313;48.518;9.124;2024-03-17T02:18:49;6.43;;;3.67;;
31734;SDS011;18313;48.518;9.124;2024-03-17T02:21:23;6.88;;;4.07;;
31734;SDS011;18313;48.518;9.124;2024-03-17T02:23:51;7.50;;;4.13;;
31734;SDS011;18313;48.518;9.124;2024-03-17T02:26:17;6.43;;;4.00;;
31734;SDS011;18313;48.518;9.124;2024-03-17T02:28:44;6.85;;;3.92;;
31734;SDS011;18313;48.518;9.124;2024-03-17T02:31:12;7.18;;;4.00;;
31734;SDS011;18313;48.518;9.124;2024-03-17T02:33:40;5.85;;;4.18;;
31734;SDS011;18313;48.518;9.124;2024-03-17T02:36:07;8.30;;;4.13;;
31734;SDS011;18313;48.518;9.124;2024-03-17T02:38:35;6.13;;;4.65;;
31734;SDS011;18313;48.518;9.124;2024-03-17T02:41:20;6.22;;;3.60;;
31734;SDS011;18313;48.518;9.124;2024-03-17T02:43:47;6.78;;;3.47;;
31734;SDS011;18313;48.518;9.124;2024-03-17T02:46:14;5.07;;;3.30;;
31734;SDS011;18313;48.518;9.124;2024-03-17T02:48:41;4.53;;;3.60;;
31734;SDS011;18313;48.518;9.124;2024-03-17T02:51:18;6.18;;;3.60;;
31734;SDS011;18313;48.518;9.124;2024-03-17T02:53:48;5.85;;;3.63;;
31734;SDS011;18313;48.518;9.124;2024-03-17T02:56:16;6.53;;;3.90;;
31734;SDS011;18313;48.518;9.124;2024-03-17T02:58:46;6.20;;;4.00;;
31734;SDS011;18313;48.518;9.124;2024-03-17T03:01:13;7.30;;;4.00;;
31734;SDS011;18313;48.518;9.124;2024-03-17T03:03:43;9.10;;;4.57;;
31734;SDS011;18313;48.518;9.124;2024-03-17T03:06:09;7.18;;;4.68;;
31734;SDS011;18313;48.518;9.124;2024-03-17T03:08:40;7.65;;;4.72;;
31734;SDS011;18313;48.518;9.124;2024-03-17T03:11:10;7.47;;;4.50;;
31734;SDS011;18313;48.518;9.124;2024-03-17T03:13:41;5.93;;;4.30;;
31734;SDS011;18313;48.518;9.124;2024-03-17T03:16:11;6.68;;;4.30;;
31734;SDS011;18313;48.518;9.124;2024-03-17T03:18:39;6.50;;;4.18;;
31734;SDS011;18313;48.518;9.124;2024-03-17T03:21:06;6.53;;;3.80;;
31734;SDS011;18313;48.518;9.124;2024-03-17T03:23:33;8.05;;;4.18;;
31734;SDS011;18313;48.518;9.124;2024-03-17T03:26:00;6.15;;;4.28;;
31734;SDS011;18313;48.518;9.124;2024-03-17T03:28:28;8.60;;;4.57;;
31734;SDS011;18313;48.518;9.124;2024-03-17T03:30:55;6.68;;;4.55;;
31734;SDS011;18313;48.518;9.124;2024-03-17T03:33:21;6.30;;;4.47;;
31734;SDS011;18313;48.518;9.124;2024-03-17T03:35:48;7.10;;;4.40;;
31734;SDS011;18313;48.518;9.124;2024-03-17T03:38:14;7.03;;;4.72;;
31734;SDS011;18313;48.518;9.124;2024-03-17T03:40:41;6.65;;;4.97;;
31734;SDS011;18313;48.518;9.124;2024-03-17T03:43:10;6.82;;;4.60;;
31734;SDS011;18313;48.518;9.124;2024-03-17T03:45:36;8.35;;;4.90;;
31734;SDS011;18313;48.518;9.124;2024-03-17T03:48:03;6.68;;;4.68;;
31734;SDS011;18313;48.518;9.124;2024-03-17T03:50:30;9.32;;;4.60;;
31734;SDS011;18313;48.518;9.124;2024-03-17T03:52:57;6.53;;;4.78;;
31734;SDS011;18313;48.518;9.124;2024-03-17T03:55:23;8.30;;;5.28;;
31734;SDS011;18313;48.518;9.124;2024-03-17T03:57:50;7.00;;;5.30;;
31734;SDS011;18313;48.518;9.124;2024-03-17T04:00:18;8.93;;;5.35;;
31734;SDS011;18313;48.518;9.124;2024-03-17T04:02:50;7.13;;;4.72;;
31734;SDS011;18313;48.518;9.124;2024-03-17T04:05:18;6.30;;;4.90;;
31734;SDS011;18313;48.518;9.124;2024-03-17T04:07:45;7.07;;;5.22;;
31734;SDS011;18313;48.518;9.124;2024-03-17T04:10:13;7.50;;;5.20;;
31734;SDS011;18313;48.518;9.124;2024-03-17T04:12:40;7.60;;;5.05;;
31734;SDS011;18313;48.518;9.124;2024-03-17T04:15:06;7.68;;;5.07;;
31734;SDS011;18313;48.518;9.124;2024-03-17T04:17:35;7.35;;;5.53;;
31734;SDS011;18313;48.518;9.124;2024-03-17T04:20:03;7.25;;;5.20;;
31734;SDS011;18313;48.518;9.124;2024-03-17T04:22:35;10.23;;;4.80;;
31734;SDS011;18313;48.518;9.124;2024-03-17T04:25:04;9.27;;;5.00;;
31734;SDS011;18313;48.518;9.124;2024-03-17T04:27:31;6.05;;;4.82;;
31734;SDS011;18313;48.518;9.124;2024-03-17T04:29:58;6.15;;;4.50;;
31734;SDS011;18313;48.518;9.124;2024-03-17T04:32:25;9.02;;;5.00;;
31734;SDS011;18313;48.518;9.124;2024-03-17T04:34:57;8.00;;;5.07;;
31734;SDS011;18313;48.518;9.124;2024-03-17T04:37:33;8.52;;;5.30;;
31734;SDS011;18313;48.518;9.124;2024-03-17T04:40:06;7.13;;;4.85;;
31734;SDS011;18313;48.518;9.124;2024-03-17T04:42:35;8.70;;;6.00;;
31734;SDS011;18313;48.518;9.124;2024-03-17T04:45:05;7.47;;;5.05;;
31734;SDS011;18313;48.518;9.124;2024-03-17T04:47:32;6.90;;;5.05;;
31734;SDS011;18313;48.518;9.124;2024-03-17T04:49:59;8.38;;;5.20;;
31734;SDS011;18313;48.518;9.124;2024-03-17T04:52:25;9.32;;;5.35;;
31734;SDS011;18313;48.518;9.124;2024-03-17T04:54:51;6.55;;;4.90;;
31734;SDS011;18313;48.518;9.124;2024-03-17T04:57:18;7.28;;;5.45;;
31734;SDS011;18313;48.518;9.124;2024-03-17T04:59:44;9.32;;;6.15;;
31734;SDS011;18313;48.518;9.124;2024-03-17T05:02:11;7.75;;;6.25;;
31734;SDS011;18313;48.518;9.124;2024-03-17T05:04:37;9.23;;;5.80;;
31734;SDS011;18313;48.518;9.124;2024-03-17T05:07:03;7.90;;;5.70;;
31734;SDS011;18313;48.518;9.124;2024-03-17T05:09:30;6.85;;;4.95;;
31734;SDS011;18313;48.518;9.124;2024-03-17T05:11:56;6.90;;;5.07;;
31734;SDS011;18313;48.518;9.124;2024-03-17T05:14:23;7.55;;;5.53;;
31734;SDS011;18313;48.518;9.124;2024-03-17T05:16:50;9.07;;;5.82;;
31734;SDS011;18313;48.518;9.124;2024-03-17T05:19:17;7.18;;;5.47;;
31734;SDS011;18313;48.518;9.124;2024-03-17T05:21:44;7.32;;;5.40;;
31734;SDS011;18313;48.518;9.124;2024-03-17T05:24:11;8.20;;;5.22;;
31734;SDS011;18313;48.518;9.124;2024-03-17T05:26:38;7.95;;;5.78;;
31734;SDS011;18313;48.518;9.124;2024-03-17T05:29:04;8.50;;;5.63;;
31734;SDS011;18313;48.518;9.124;2024-03-17T05:31:31;10.00;;;5.50;;
31734;SDS011;18313;48.518;9.124;2024-03-17T05:33:57;7.40;;;5.80;;
31734;SDS011;18313;48.518;9.124;2024-03-17T05:36:23;8.73;;;5.97;;
31734;SDS011;18313;48.518;9.124;2024-03-17T05:38:50;9.32;;;5.75;;
31734;SDS011;18313;48.518;9.124;2024-03-17T05:41:16;9.02;;;5.55;;
31734;SDS011;18313;48.518;9.124;2024-03-17T05:43:42;9.52;;;6.05;;
31734;SDS011;18313;48.518;9.124;2024-03-17T05:46:09;7.97;;;5.47;;
31734;SDS011;18313;48.518;9.124;2024-03-17T05:48:38;11.65;;;6.40;;
31734;SDS011;18313;48.518;9.124;2024-03-17T05:51:06;8.90;;;6.32;;
31734;SDS011;18313;48.518;9.124;2024-03-17T05:53:33;8.65;;;6.53;;
31734;SDS011;18313;48.518;9.124;2024-03-17T05:55:59;10.73;;;7.75;;
31734;SDS011;18313;48.518;9.124;2024-03-17T05:58:26;14.88;;;9.43;;
31734;SDS011;18313;48.518;9.124;2024-03-17T06:00:52;16.52;;;10.75;;
31734;SDS011;18313;48.518;9.124;2024-03-17T06:03:19;16.13;;;11.93;;
31734;SDS011;18313;48.518;9.124;2024-03-17T06:05:45;16.45;;;11.00;;
31734;SDS011;18313;48.518;9.124;2024-03-17T06:08:12;16.77;;;11.82;;
31734;SDS011;18313;48.518;9.124;2024-03-17T06:10:43;12.65;;;9.57;;
31734;SDS011;18313;48.518;9.124;2024-03-17T06:13:12;12.10;;;8.48;;
31734;SDS011;18313;48.518;9.124;2024-03-17T06:15:40;13.57;;;8.35;;
31734;SDS011;18313;48.518;9.124;2024-03-17T06:18:08;14.20;;;10.02;;
31734;SDS011;18313;48.518;9.124;2024-03-17T06:20:41;15.77;;;11.32;;
31734;SDS011;18313;48.518;9.124;2024-03-17T06:23:09;14.15;;;10.25;;
31734;SDS011;18313;48.518;9.124;2024-03-17T06:25:43;22.45;;;12.07;;
31734;SDS011;18313;48.518;9.124;2024-03-17T06:28:10;63.95;;;25.67;;
31734;SDS011;18313;48.518;9.124;2024-03-17T06:30:41;23.00;;;14.57;;
31734;SDS011;18313;48.518;9.124;2024-03-17T06:33:13;17.50;;;12.65;;
31734;SDS011;18313;48.518;9.124;2024-03-17T06:35:41;17.25;;;11.00;;
31734;SDS011;18313;48.518;9.124;2024-03-17T06:38:08;16.77;;;11.70;;
31734;SDS011;18313;48.518;9.124;2024-03-17T06:40:37;17.80;;;10.57;;
31734;SDS011;18313;48.518;9.124;2024-03-17T06:43:03;14.75;;;10.57;;
31734;SDS011;18313;48.518;9.124;2024-03-17T06:45:30;14.00;;;9.38;;
31734;SDS011;18313;48.518;9.124;2024-03-17T06:47:56;14.75;;;9.50;;
31734;SDS011;18313;48.518;9.124;2024-03-17T06:50:23;14.52;;;9.52;;
31734;SDS011;18313;48.518;9.124;2024-03-17T06:52:49;15.57;;;9.15;;
31734;SDS011;18313;48.518;9.124;2024-03-17T06:55:18;14.30;;;9.98;;
31734;SDS011;18313;48.518;9.124;2024-03-17T06:57:47;15.23;;;9.45;;
31734;SDS011;18313;48.518;9.124;2024-03-17T07:00:13;10.77;;;8.38;;
31734;SDS011;18313;48.518;9.124;2024-03-17T07:02:42;12.60;;;8.77;;
31734;SDS011;18313;48.518;9.124;2024-03-17T07:05:14;11.52;;;8.18;;
31734;SDS011;18313;48.518;9.124;2024-03-17T07:07:41;12.57;;;8.25;;
31734;SDS011;18313;48.518;9.124;2024-03-17T07:10:08;11.45;;;8.48;;
31734;SDS011;18313;48.518;9.124;2024-03-17T07:12:37;11.88;;;8.32;;
31734;SDS011;18313;48.518;9.124;2024-03-17T07:15:04;16.23;;;8.10;;
31734;SDS011;18313;48.518;9.124;2024-03-17T07:17:31;10.23;;;7.80;;
31734;SDS011;18313;48.518;9.124;2024-03-17T07:19:57;11.70;;;8.13;;
31734;SDS011;18313;48.518;9.124;2024-03-17T07:22:24;11.57;;;7.57;;
31734;SDS011;18313;48.518;9.124;2024-03-17T07:24:52;12.95;;;8.98;;
31734;SDS011;18313;48.518;9.124;2024-03-17T07:27:26;10.35;;;7.95;;
31734;SDS011;18313;48.518;9.124;2024-03-17T07:29:52;10.35;;;7.60;;
31734;SDS011;18313;48.518;9.124;2024-03-17T07:32:19;9.15;;;6.80;;
31734;SDS011;18313;48.518;9.124;2024-03-17T07:34:45;14.02;;;8.57;;
31734;SDS011;18313;48.518;9.124;2024-03-17T07:37:11;14.52;;;9.07;;
31734;SDS011;18313;48.518;9.124;2024-03-17T07:39:38;16.52;;;10.48;;
31734;SDS011;18313;48.518;9.124;2024-03-17T07:42:04;25.67;;;15.35;;
31734;SDS011;18313;48.518;9.124;2024-03-17T07:44:30;32.08;;;19.23;;
31734;SDS011;18313;48.518;9.124;2024-03-17T07:47:00;94.72;;;55.42;;
31734;SDS011;18313;48.518;9.124;2024-03-17T07:49:27;87.60;;;49.28;;
31734;SDS011;18313;48.518;9.124;2024-03-17T07:51:53;94.00;;;57.00;;
31734;SDS011;18313;48.518;9.124;2024-03-17T07:54:19;116.35;;;68.20;;
31734;SDS011;18313;48.518;9.124;2024-03-17T07:56:46;76.60;;;45.97;;
31734;SDS011;18313;48.518;9.124;2024-03-17T07:59:12;59.97;;;37.50;;
31734;SDS011;18313;48.518;9.124;2024-03-17T08:01:42;63.95;;;41.00;;
31734;SDS011;18313;48.518;9.124;2024-03-17T08:04:09;67.43;;;41.08;;
31734;SDS011;18313;48.518;9.124;2024-03-17T08:06:40;47.45;;;29.50;;
31734;SDS011;18313;48.518;9.124;2024-03-17T08:09:07;46.78;;;30.55;;
31734;SDS011;18313;48.518;9.124;2024-03-17T08:11:34;35.88;;;22.27;;
31734;SDS011;18313;48.518;9.124;2024-03-17T08:14:01;38.75;;;22.90;;
31734;SDS011;18313;48.518;9.124;2024-03-17T08:16:28;27.48;;;18.40;;
31734;SDS011;18313;48.518;9.124;2024-03-17T08:18:55;30.10;;;20.02;;
31734;SDS011;18313;48.518;9.124;2024-03-17T08:21:22;32.97;;;20.60;;
31734;SDS011;18313;48.518;9.124;2024-03-17T08:23:48;23.25;;;14.43;;
31734;SDS011;18313;48.518;9.124;2024-03-17T08:26:14;36.67;;;22.75;;
31734;SDS011;18313;48.518;9.124;2024-03-17T08:28:41;33.95;;;22.90;;
31734;SDS011;18313;48.518;9.124;2024-03-17T08:31:07;34.88;;;20.70;;
31734;SDS011;18313;48.518;9.124;2024-03-17T08:33:33;38.13;;;21.90;;
31734;SDS011;18313;48.518;9.124;2024-03-17T08:36:03;35.08;;;21.05;;
31734;SDS011;18313;48.518;9.124;2024-03-17T08:38:32;35.63;;;22.92;;
31734;SDS011;18313;48.518;9.124;2024-03-17T08:41:03;39.17;;;22.98;;
